createdAt,value
2022-12-22T00:00:48.243Z,0.5
2022-12-22T00:01:50.271Z,0.5
2022-12-22T00:02:48.444Z,1.8
2022-12-22T00:03:48.347Z,1.8
2022-12-22T00:04:48.265Z,1.8
2022-12-22T00:05:48.289Z,0
2022-12-22T00:06:48.244Z,0
2022-12-22T00:07:48.241Z,0
2022-12-22T00:08:48.337Z,0
2022-12-22T00:09:48.271Z,0.8
2022-12-22T00:10:48.250Z,0.8
2022-12-22T00:11:48.244Z,0.8
2022-12-22T00:12:48.247Z,0
2022-12-22T00:13:48.292Z,0
2022-12-22T00:14:48.534Z,0
2022-12-22T00:15:48.210Z,0.8
2022-12-22T00:16:48.466Z,0.8
2022-12-22T00:17:48.285Z,0.8
2022-12-22T00:18:48.298Z,0.8
2022-12-22T00:19:48.281Z,0
2022-12-22T00:20:48.290Z,0
2022-12-22T00:21:48.272Z,0
2022-12-22T00:22:48.289Z,0.6
2022-12-22T00:23:48.262Z,0.6
2022-12-22T00:24:48.309Z,0.6
2022-12-22T00:25:48.261Z,0
2022-12-22T00:26:48.263Z,0
2022-12-22T00:27:48.285Z,0
2022-12-22T00:28:48.269Z,0
2022-12-22T00:29:48.271Z,0
2022-12-22T00:30:48.345Z,0
2022-12-22T00:31:48.269Z,0
2022-12-22T00:32:48.304Z,0.7
2022-12-22T00:33:48.578Z,0.7
2022-12-22T00:34:48.343Z,0.7
2022-12-22T00:35:48.348Z,0
2022-12-22T00:36:48.364Z,0
2022-12-22T00:37:48.616Z,0
2022-12-22T00:38:48.372Z,0
2022-12-22T00:39:48.377Z,0
2022-12-22T00:40:48.394Z,0
2022-12-22T00:41:48.421Z,0
2022-12-22T00:42:48.406Z,0
2022-12-22T00:43:48.420Z,0
2022-12-22T00:44:48.380Z,0
2022-12-22T00:45:48.470Z,0
2022-12-22T00:46:48.390Z,0
2022-12-22T00:47:48.404Z,0
2022-12-22T00:48:48.393Z,0
2022-12-22T00:49:48.620Z,0
2022-12-22T00:50:48.394Z,0
2022-12-22T00:51:48.380Z,0
2022-12-22T00:52:48.376Z,0
2022-12-22T00:53:48.395Z,0
2022-12-22T00:54:48.364Z,0
2022-12-22T00:55:48.392Z,0
2022-12-22T00:56:48.509Z,0
2022-12-22T00:57:48.412Z,0
2022-12-22T00:58:48.345Z,0
2022-12-22T00:59:48.328Z,0
2022-12-22T01:00:48.391Z,0
2022-12-22T01:01:48.454Z,0
2022-12-22T01:02:48.441Z,0
2022-12-22T01:03:48.470Z,0
2022-12-22T01:04:48.366Z,0
2022-12-22T01:05:48.405Z,0.5
2022-12-22T01:06:48.429Z,0.5
2022-12-22T01:07:48.382Z,0.5
2022-12-22T01:08:48.364Z,0.5
2022-12-22T01:09:48.391Z,0
2022-12-22T01:10:48.352Z,0
2022-12-22T01:11:48.384Z,0
2022-12-22T01:12:48.391Z,0.7
2022-12-22T01:13:48.393Z,0.7
2022-12-22T01:14:48.344Z,0.7
2022-12-22T01:15:48.459Z,0
2022-12-22T01:16:48.348Z,0
2022-12-22T01:17:48.379Z,0
2022-12-22T01:18:48.373Z,0
2022-12-22T01:19:48.379Z,0.5
2022-12-22T01:20:48.359Z,0.5
2022-12-22T01:21:48.381Z,0.5
2022-12-22T01:22:48.386Z,0
2022-12-22T01:23:48.403Z,0
2022-12-22T01:24:48.362Z,0
2022-12-22T01:25:48.414Z,0
2022-12-22T01:26:48.377Z,0.7
2022-12-22T01:27:48.386Z,0.7
2022-12-22T01:28:48.410Z,0.7
2022-12-22T01:29:48.469Z,0
2022-12-22T01:30:48.391Z,0
2022-12-22T01:31:48.386Z,0
2022-12-22T01:32:48.383Z,0.9
2022-12-22T01:33:48.389Z,0.9
2022-12-22T01:34:48.377Z,0.9
2022-12-22T01:35:48.399Z,0.9
2022-12-22T01:36:48.377Z,0
2022-12-22T01:37:48.499Z,0
2022-12-22T01:38:48.378Z,0
2022-12-22T01:39:48.389Z,0.9
2022-12-22T01:40:48.372Z,0.9
2022-12-22T01:41:48.402Z,0.9
2022-12-22T01:42:48.492Z,0
2022-12-22T01:43:48.405Z,0
2022-12-22T01:44:48.423Z,0
2022-12-22T01:45:48.524Z,0
2022-12-22T01:46:48.504Z,1.1
2022-12-22T01:47:48.503Z,1.1
2022-12-22T01:48:48.414Z,1.1
2022-12-22T01:49:48.401Z,0.6
2022-12-22T01:50:48.621Z,0.6
2022-12-22T01:51:48.469Z,0.6
2022-12-22T01:52:48.409Z,1.2
2022-12-22T01:53:48.546Z,1.2
2022-12-22T01:54:48.414Z,1.2
2022-12-22T01:55:48.503Z,1.2
2022-12-22T01:56:48.417Z,1.2
2022-12-22T01:57:48.503Z,1.2
2022-12-22T01:58:48.443Z,1.2
2022-12-22T01:59:48.472Z,1.3
2022-12-22T02:00:48.471Z,1.3
2022-12-22T02:01:48.505Z,1.3
2022-12-22T02:02:48.528Z,1.6
2022-12-22T02:03:48.485Z,1.6
2022-12-22T02:04:48.413Z,1.6
2022-12-22T02:05:48.439Z,1.6
2022-12-22T02:06:48.418Z,1.8
2022-12-22T02:07:48.513Z,1.8
2022-12-22T02:08:48.427Z,1.8
2022-12-22T02:09:48.436Z,3.1
2022-12-22T02:10:48.446Z,3.1
2022-12-22T02:11:48.456Z,3.1
2022-12-22T02:12:48.451Z,2.5
2022-12-22T02:13:48.431Z,2.5
2022-12-22T02:14:48.432Z,2.5
2022-12-22T02:15:48.480Z,2.5
2022-12-22T02:16:48.483Z,4.8
2022-12-22T02:17:48.518Z,4.8
2022-12-22T02:18:48.424Z,4.8
2022-12-22T02:19:48.462Z,0
2022-12-22T02:20:48.457Z,0
2022-12-22T02:21:48.449Z,0
2022-12-22T02:22:48.456Z,1
2022-12-22T02:23:48.462Z,1
2022-12-22T02:24:48.490Z,1
2022-12-22T02:25:48.454Z,1
2022-12-22T02:26:48.440Z,2.6
2022-12-22T02:27:48.516Z,2.6
2022-12-22T02:28:48.454Z,2.6
2022-12-22T02:29:48.459Z,0.8
2022-12-22T02:30:48.480Z,0.8
2022-12-22T02:31:48.495Z,0.8
2022-12-22T02:32:48.627Z,0.8
2022-12-22T02:33:48.464Z,1
2022-12-22T02:34:48.442Z,1
2022-12-22T02:35:48.459Z,1
2022-12-22T02:36:48.453Z,1
2022-12-22T02:37:48.539Z,1
2022-12-22T02:38:48.465Z,1
2022-12-22T02:39:48.557Z,1.3
2022-12-22T02:40:48.461Z,1.3
2022-12-22T02:41:48.702Z,1.3
2022-12-22T02:42:48.608Z,1.3
2022-12-22T02:43:48.545Z,0.8
2022-12-22T02:44:48.609Z,0.8
2022-12-22T02:45:48.548Z,0.8
2022-12-22T02:46:48.565Z,0.9
2022-12-22T02:47:48.579Z,0.9
2022-12-22T02:48:48.620Z,0.9
2022-12-22T02:49:48.600Z,1.3
2022-12-22T02:50:48.605Z,1.3
2022-12-22T02:51:48.536Z,1.3
2022-12-22T02:52:48.584Z,1.3
2022-12-22T02:53:48.621Z,2.4
2022-12-22T02:54:48.589Z,2.4
2022-12-22T02:55:48.532Z,2.4
2022-12-22T02:56:48.591Z,2.7
2022-12-22T02:57:48.587Z,2.7
2022-12-22T02:58:48.581Z,2.7
2022-12-22T02:59:48.584Z,0.8
2022-12-22T03:00:48.658Z,0.8
2022-12-22T03:01:48.780Z,0.8
2022-12-22T03:02:48.770Z,0.8
2022-12-22T03:03:48.659Z,1.5
2022-12-22T03:04:48.769Z,1.5
2022-12-22T03:05:48.590Z,1.5
2022-12-22T03:06:48.584Z,1.5
2022-12-22T03:07:48.655Z,1.5
2022-12-22T03:08:48.586Z,1.5
2022-12-22T03:09:48.662Z,0.8
2022-12-22T03:10:48.661Z,0.8
2022-12-22T03:11:48.627Z,0.8
2022-12-22T03:12:48.709Z,0.8
2022-12-22T03:13:48.613Z,1.9
2022-12-22T03:14:48.616Z,1.9
2022-12-22T03:15:48.636Z,1.9
2022-12-22T03:16:48.679Z,1.3
2022-12-22T03:17:48.704Z,1.3
2022-12-22T03:18:48.657Z,1.3
2022-12-22T03:19:48.692Z,1.6
2022-12-22T03:20:48.644Z,1.6
2022-12-22T03:21:48.691Z,1.6
2022-12-22T03:22:48.682Z,1.6
2022-12-22T03:23:48.672Z,1.5
2022-12-22T03:24:48.714Z,1.5
2022-12-22T03:25:48.737Z,1.5
2022-12-22T03:26:48.634Z,2.3
2022-12-22T03:27:48.772Z,2.3
2022-12-22T03:28:48.729Z,2.3
2022-12-22T03:29:48.709Z,0
2022-12-22T03:30:48.767Z,0
2022-12-22T03:31:48.731Z,0
2022-12-22T03:32:48.981Z,0
2022-12-22T03:33:48.667Z,2.9
2022-12-22T03:34:48.669Z,2.9
2022-12-22T03:35:48.674Z,2.9
2022-12-22T03:36:48.771Z,2.5
2022-12-22T03:37:48.729Z,2.5
2022-12-22T03:38:48.895Z,2.5
2022-12-22T03:39:48.759Z,0.6
2022-12-22T03:40:48.736Z,0.6
2022-12-22T03:41:48.745Z,0.6
2022-12-22T03:42:48.746Z,0.6
2022-12-22T03:43:48.742Z,2.4
2022-12-22T03:44:48.800Z,2.4
2022-12-22T03:45:48.967Z,2.4
2022-12-22T03:46:48.944Z,2
2022-12-22T03:47:48.874Z,2
2022-12-22T03:48:48.880Z,2
2022-12-22T03:49:48.868Z,2
2022-12-22T03:50:48.849Z,0.8
2022-12-22T03:51:49.327Z,0.8
2022-12-22T03:52:48.954Z,0.8
2022-12-22T03:53:48.978Z,2
2022-12-22T03:54:48.925Z,2
2022-12-22T03:55:48.975Z,2
2022-12-22T03:56:48.915Z,0.6
2022-12-22T03:57:49.009Z,0.6
2022-12-22T03:58:48.941Z,0.6
2022-12-22T03:59:48.969Z,0.6
2022-12-22T04:00:48.985Z,2.4
2022-12-22T04:01:49.124Z,2.4
2022-12-22T04:02:49.055Z,2.4
2022-12-22T04:03:48.953Z,2.4
2022-12-22T04:04:48.943Z,2.4
2022-12-22T04:05:48.947Z,2.4
2022-12-22T04:06:48.931Z,2.2
2022-12-22T04:07:49.006Z,2.2
2022-12-22T04:08:48.997Z,2.2
2022-12-22T04:09:48.945Z,2.2
2022-12-22T04:10:48.937Z,1
2022-12-22T04:11:48.963Z,1
2022-12-22T04:12:48.937Z,1
2022-12-22T04:13:48.986Z,0
2022-12-22T04:14:48.959Z,0
2022-12-22T04:15:48.986Z,0
2022-12-22T04:16:49.049Z,1
2022-12-22T04:17:49.015Z,1
2022-12-22T04:18:48.956Z,1
2022-12-22T04:19:48.960Z,1
2022-12-22T04:20:48.960Z,2.4
2022-12-22T04:21:48.971Z,2.4
2022-12-22T04:22:48.935Z,2.4
2022-12-22T04:23:48.973Z,1.5
2022-12-22T04:24:49.045Z,1.5
2022-12-22T04:25:48.987Z,1.5
2022-12-22T04:26:48.947Z,1.8
2022-12-22T04:27:48.980Z,1.8
2022-12-22T04:28:49.012Z,1.8
2022-12-22T04:29:48.975Z,1.8
2022-12-22T04:30:48.948Z,1.1
2022-12-22T04:31:49.064Z,1.1
2022-12-22T04:32:48.941Z,1.1
2022-12-22T04:33:48.992Z,1.3
2022-12-22T04:34:48.953Z,1.3
2022-12-22T04:35:48.968Z,1.3
2022-12-22T04:36:49.066Z,2.5
2022-12-22T04:37:48.986Z,2.5
2022-12-22T04:38:48.958Z,2.5
2022-12-22T04:39:48.983Z,2.5
2022-12-22T04:40:48.996Z,0.8
2022-12-22T04:41:48.970Z,0.8
2022-12-22T04:42:48.973Z,0.8
2022-12-22T04:43:48.991Z,1.9
2022-12-22T04:44:48.949Z,1.9
2022-12-22T04:45:49.034Z,1.9
2022-12-22T04:46:48.976Z,0.5
2022-12-22T04:47:49.006Z,0.5
2022-12-22T04:48:50.975Z,0.5
2022-12-22T04:49:49.007Z,0.5
2022-12-22T04:50:48.961Z,4
2022-12-22T04:51:48.972Z,4
2022-12-22T04:52:48.972Z,4
2022-12-22T04:53:48.983Z,2.9
2022-12-22T04:54:49.005Z,2.9
2022-12-22T04:55:49.011Z,2.9
2022-12-22T04:56:49.175Z,1.8
2022-12-22T04:57:49.433Z,1.8
2022-12-22T04:58:48.963Z,1.8
2022-12-22T04:59:48.989Z,1.8
2022-12-22T05:00:49.050Z,1.1
2022-12-22T05:01:49.135Z,1.1
2022-12-22T05:02:49.065Z,1.1
2022-12-22T05:03:49.010Z,1.9
2022-12-22T05:04:48.958Z,1.9
2022-12-22T05:05:48.985Z,1.9
2022-12-22T05:06:48.992Z,0.8
2022-12-22T05:07:49.244Z,0.8
2022-12-22T05:08:49.022Z,0.8
2022-12-22T05:09:49.028Z,0.8
2022-12-22T05:10:49.039Z,1.3
2022-12-22T05:11:49.059Z,1.3
2022-12-22T05:12:49.056Z,1.3
2022-12-22T05:13:49.384Z,1.1
2022-12-22T05:14:49.059Z,1.1
2022-12-22T05:15:49.067Z,1.1
2022-12-22T05:16:49.154Z,1.1
2022-12-22T05:17:49.071Z,1.7
2022-12-22T05:18:49.064Z,1.7
2022-12-22T05:19:49.085Z,1.7
2022-12-22T05:20:49.053Z,0
2022-12-22T05:21:49.079Z,0
2022-12-22T05:22:49.059Z,0
2022-12-22T05:23:49.067Z,2.4
2022-12-22T05:24:49.123Z,2.4
2022-12-22T05:25:49.075Z,2.4
2022-12-22T05:26:49.069Z,2.4
2022-12-22T05:27:49.088Z,1
2022-12-22T05:28:49.105Z,1
2022-12-22T05:29:49.102Z,1
2022-12-22T05:30:49.156Z,1.8
2022-12-22T05:31:49.113Z,1.8
2022-12-22T05:32:49.079Z,1.8
2022-12-22T05:33:49.084Z,2.4
2022-12-22T05:34:49.084Z,2.4
2022-12-22T05:35:49.083Z,2.4
2022-12-22T05:36:49.092Z,2.4
2022-12-22T05:37:49.089Z,3.1
2022-12-22T05:38:49.098Z,3.1
2022-12-22T05:39:49.096Z,3.1
2022-12-22T05:40:49.075Z,1.8
2022-12-22T05:41:49.102Z,1.8
2022-12-22T05:42:49.103Z,1.8
2022-12-22T05:43:49.094Z,2.4
2022-12-22T05:44:49.105Z,2.4
2022-12-22T05:45:49.126Z,2.4
2022-12-22T05:46:49.081Z,2.4
2022-12-22T05:47:49.125Z,2.2
2022-12-22T05:48:49.109Z,2.2
2022-12-22T05:49:49.141Z,2.2
2022-12-22T05:50:49.232Z,1
2022-12-22T05:51:49.118Z,1
2022-12-22T05:52:49.075Z,1
2022-12-22T05:53:49.204Z,2.6
2022-12-22T05:54:49.107Z,2.6
2022-12-22T05:55:49.127Z,2.6
2022-12-22T05:56:49.072Z,2.6
2022-12-22T05:57:49.130Z,3.4
2022-12-22T05:58:49.100Z,3.4
2022-12-22T05:59:49.075Z,3.4
2022-12-22T06:00:49.151Z,4.2
2022-12-22T06:01:49.167Z,4.2
2022-12-22T06:02:49.206Z,4.2
2022-12-22T06:03:52.191Z,2.9
2022-12-22T06:04:49.179Z,2.9
2022-12-22T06:05:49.213Z,2.9
2022-12-22T06:06:49.178Z,2.9
2022-12-22T06:07:49.194Z,1.6
2022-12-22T06:08:49.210Z,1.6
2022-12-22T06:09:49.239Z,1.6
2022-12-22T06:10:49.189Z,2.4
2022-12-22T06:11:49.279Z,2.4
2022-12-22T06:12:49.196Z,2.4
2022-12-22T06:13:49.225Z,2.9
2022-12-22T06:14:49.193Z,2.9
2022-12-22T06:15:49.258Z,2.9
2022-12-22T06:16:49.221Z,2.9
2022-12-22T06:17:49.276Z,1.9
2022-12-22T06:18:49.214Z,1.9
2022-12-22T06:19:49.211Z,1.9
2022-12-22T06:20:49.213Z,1.4
2022-12-22T06:21:49.208Z,1.4
2022-12-22T06:22:49.203Z,1.4
2022-12-22T06:23:49.199Z,3.2
2022-12-22T06:24:49.162Z,3.2
2022-12-22T06:25:49.169Z,3.2
2022-12-22T06:26:49.203Z,3.2
2022-12-22T06:27:49.180Z,2.9
2022-12-22T06:28:49.171Z,2.9
2022-12-22T06:29:49.175Z,2.9
2022-12-22T06:30:49.288Z,1.5
2022-12-22T06:31:49.294Z,1.5
2022-12-22T06:32:49.269Z,1.5
2022-12-22T06:33:49.286Z,2.4
2022-12-22T06:34:49.247Z,2.4
2022-12-22T06:35:53.828Z,2.4
2022-12-22T06:36:49.205Z,2.4
2022-12-22T06:37:49.193Z,4.4
2022-12-22T06:38:49.225Z,4.4
2022-12-22T06:39:49.205Z,4.4
2022-12-22T06:40:49.206Z,3.2
2022-12-22T06:41:49.224Z,3.2
2022-12-22T06:42:49.209Z,3.2
2022-12-22T06:43:49.261Z,3.2
2022-12-22T06:44:49.219Z,2.4
2022-12-22T06:45:49.219Z,2.4
2022-12-22T06:46:49.290Z,2.4
2022-12-22T06:47:49.221Z,0.9
2022-12-22T06:48:49.266Z,0.9
2022-12-22T06:49:49.632Z,0.9
2022-12-22T06:50:49.478Z,0.8
2022-12-22T06:51:49.564Z,0.8
2022-12-22T06:52:49.610Z,0.8
2022-12-22T06:53:49.452Z,0.8
2022-12-22T06:54:49.508Z,4.8
2022-12-22T06:55:49.441Z,4.8
2022-12-22T06:56:49.380Z,4.8
2022-12-22T06:57:49.430Z,2.2
2022-12-22T06:58:49.378Z,2.2
2022-12-22T06:59:53.683Z,2.2
2022-12-22T07:00:49.403Z,2.2
2022-12-22T07:01:49.745Z,0.9
2022-12-22T07:02:49.775Z,0.9
2022-12-22T07:03:49.480Z,0.9
2022-12-22T07:04:49.460Z,2.2
2022-12-22T07:05:49.435Z,2.2
2022-12-22T07:06:49.415Z,2.2
2022-12-22T07:07:49.446Z,2.2
2022-12-22T07:08:49.424Z,4.8
2022-12-22T07:09:49.466Z,4.8
2022-12-22T07:10:49.415Z,4.8
2022-12-22T07:11:49.432Z,1.1
2022-12-22T07:12:49.418Z,1.1
2022-12-22T07:13:49.422Z,1.1
2022-12-22T07:14:49.367Z,1
2022-12-22T07:15:55.422Z,1
2022-12-22T07:16:49.398Z,1
2022-12-22T07:17:49.425Z,1
2022-12-22T07:18:49.407Z,3.1
2022-12-22T07:19:49.419Z,3.1
2022-12-22T07:20:49.460Z,3.1
2022-12-22T07:21:49.653Z,1.4
2022-12-22T07:22:49.462Z,1.4
2022-12-22T07:23:49.406Z,1.4
2022-12-22T07:24:49.460Z,2.7
2022-12-22T07:25:49.543Z,2.7
2022-12-22T07:26:49.407Z,2.7
2022-12-22T07:27:49.415Z,2.7
2022-12-22T07:28:49.458Z,0.8
2022-12-22T07:29:49.412Z,0.8
2022-12-22T07:30:49.477Z,0.8
2022-12-22T07:31:49.507Z,2.5
2022-12-22T07:32:49.408Z,2.5
2022-12-22T07:33:49.485Z,2.5
2022-12-22T07:34:49.460Z,2.5
2022-12-22T07:35:49.726Z,2.5
2022-12-22T07:36:49.492Z,2.5
2022-12-22T07:37:49.510Z,2.5
2022-12-22T07:38:49.454Z,0
2022-12-22T07:39:49.452Z,0
2022-12-22T07:40:51.947Z,0
2022-12-22T07:41:49.458Z,1.8
2022-12-22T07:42:49.574Z,1.8
2022-12-22T07:43:49.776Z,1.8
2022-12-22T07:44:49.474Z,1.8
2022-12-22T07:45:49.658Z,0
2022-12-22T07:46:49.705Z,0
2022-12-22T07:47:49.478Z,0
2022-12-22T07:48:49.494Z,3.4
2022-12-22T07:49:49.497Z,3.4
2022-12-22T07:50:49.507Z,3.4
2022-12-22T07:51:49.494Z,3
2022-12-22T07:52:49.521Z,3
2022-12-22T07:53:49.523Z,3
2022-12-22T07:54:49.617Z,3
2022-12-22T07:55:49.546Z,4.4
2022-12-22T07:56:49.502Z,4.4
2022-12-22T07:57:49.517Z,4.4
2022-12-22T07:58:49.517Z,3
2022-12-22T07:59:49.519Z,3
2022-12-22T08:00:49.523Z,3
2022-12-22T08:01:49.649Z,4.2
2022-12-22T08:02:49.623Z,4.2
2022-12-22T08:03:49.512Z,4.2
2022-12-22T08:04:49.563Z,4.2
2022-12-22T08:05:49.533Z,3.1
2022-12-22T08:06:49.523Z,3.1
2022-12-22T08:07:49.537Z,3.1
2022-12-22T08:08:49.575Z,0.8
2022-12-22T08:09:49.512Z,0.8
2022-12-22T08:10:49.515Z,0.8
2022-12-22T08:11:49.545Z,3.1
2022-12-22T08:12:49.559Z,3.1
2022-12-22T08:13:49.587Z,3.1
2022-12-22T08:14:49.620Z,3.1
2022-12-22T08:15:49.590Z,5
2022-12-22T08:16:49.740Z,5
2022-12-22T08:17:49.591Z,5
2022-12-22T08:18:49.582Z,2.7
2022-12-22T08:19:49.539Z,2.7
2022-12-22T08:20:49.534Z,2.7
2022-12-22T08:21:52.697Z,4.6
2022-12-22T08:22:49.542Z,4.6
2022-12-22T08:23:49.604Z,4.6
2022-12-22T08:24:49.576Z,4.6
2022-12-22T08:25:49.534Z,2.5
2022-12-22T08:26:49.602Z,2.5
2022-12-22T08:27:49.596Z,2.5
2022-12-22T08:28:49.674Z,3.6
2022-12-22T08:29:49.553Z,3.6
2022-12-22T08:30:49.547Z,3.6
2022-12-22T08:31:49.611Z,3.6
2022-12-22T08:32:49.661Z,2.4
2022-12-22T08:33:49.597Z,2.4
2022-12-22T08:34:49.563Z,2.4
2022-12-22T08:35:49.625Z,2.1
2022-12-22T08:36:49.611Z,2.1
2022-12-22T08:37:49.556Z,2.1
2022-12-22T08:38:49.598Z,2.1
2022-12-22T08:39:49.633Z,2.6
2022-12-22T08:40:49.581Z,2.6
2022-12-22T08:41:49.551Z,2.6
2022-12-22T08:42:49.676Z,2.6
2022-12-22T08:43:49.883Z,3
2022-12-22T08:44:49.679Z,3
2022-12-22T08:45:49.739Z,3
2022-12-22T08:46:49.704Z,4.4
2022-12-22T08:47:49.758Z,4.4
2022-12-22T08:48:49.757Z,4.4
2022-12-22T08:49:49.644Z,4.4
2022-12-22T08:50:49.595Z,1.6
2022-12-22T08:51:50.059Z,1.6
2022-12-22T08:52:49.728Z,1.6
2022-12-22T08:54:06.357Z,4
2022-12-22T08:54:49.732Z,4
2022-12-22T08:55:49.685Z,4
2022-12-22T08:56:49.766Z,5.9
2022-12-22T08:57:55.760Z,5.9
2022-12-22T08:58:50.006Z,5.9
2022-12-22T08:59:50.217Z,5.9
2022-12-22T09:00:49.877Z,6.1
2022-12-22T09:01:49.852Z,6.1
2022-12-22T09:02:49.914Z,6.1
2022-12-22T09:03:49.850Z,6.1
2022-12-22T09:04:49.741Z,5.6
2022-12-22T09:05:49.755Z,5.6
2022-12-22T09:06:49.756Z,5.6
2022-12-22T09:07:49.741Z,5.6
2022-12-22T09:08:49.744Z,2.4
2022-12-22T09:09:49.759Z,2.4
2022-12-22T09:10:49.758Z,2.4
2022-12-22T09:11:49.757Z,4.8
2022-12-22T09:12:49.815Z,4.8
2022-12-22T09:13:49.790Z,4.8
2022-12-22T09:14:49.811Z,3
2022-12-22T09:15:49.761Z,3
2022-12-22T09:16:49.837Z,3
2022-12-22T09:17:49.780Z,3
2022-12-22T09:18:49.792Z,3.6
2022-12-22T09:19:49.789Z,3.6
2022-12-22T09:20:49.775Z,3.6
2022-12-22T09:21:49.765Z,3.6
2022-12-22T09:22:49.774Z,5
2022-12-22T09:23:49.779Z,5
2022-12-22T09:24:49.769Z,5
2022-12-22T09:25:49.765Z,2.9
2022-12-22T09:26:49.800Z,2.9
2022-12-22T09:27:49.805Z,2.9
2022-12-22T09:28:50.852Z,2.9
2022-12-22T09:29:49.789Z,2.1
2022-12-22T09:30:49.772Z,2.1
2022-12-22T09:31:49.803Z,2.1
2022-12-22T09:32:49.785Z,3
2022-12-22T09:33:49.781Z,3
2022-12-22T09:34:49.775Z,3
2022-12-22T09:35:49.774Z,3
2022-12-22T09:36:49.771Z,2.6
2022-12-22T09:37:49.786Z,2.6
2022-12-22T09:38:49.801Z,2.6
2022-12-22T09:39:49.808Z,2.7
2022-12-22T09:40:49.791Z,2.7
2022-12-22T09:41:49.803Z,2.7
2022-12-22T09:42:49.815Z,2.5
2022-12-22T09:43:49.837Z,2.5
2022-12-22T09:44:49.836Z,2.5
2022-12-22T09:45:49.869Z,4.2
2022-12-22T09:46:49.810Z,4.2
2022-12-22T09:47:49.829Z,4.2
2022-12-22T09:48:49.823Z,4.2
2022-12-22T09:49:49.817Z,3.2
2022-12-22T09:50:49.790Z,3.2
2022-12-22T09:51:49.829Z,3.2
2022-12-22T09:52:49.799Z,2.9
2022-12-22T09:53:49.826Z,2.9
2022-12-22T09:54:49.814Z,2.9
2022-12-22T09:55:49.862Z,4
2022-12-22T09:56:49.832Z,4
2022-12-22T09:57:49.829Z,4
2022-12-22T09:58:49.822Z,4
2022-12-22T09:59:49.821Z,2.5
2022-12-22T10:00:49.918Z,2.5
2022-12-22T10:01:49.921Z,2.5
2022-12-22T10:02:49.835Z,2.5
2022-12-22T10:03:51.756Z,2.5
2022-12-22T10:04:49.828Z,2.5
2022-12-22T10:05:49.814Z,3.5
2022-12-22T10:06:49.836Z,3.5
2022-12-22T10:07:49.847Z,3.5
2022-12-22T10:08:49.816Z,2.4
2022-12-22T10:09:51.402Z,2.4
2022-12-22T10:10:49.829Z,2.4
2022-12-22T10:11:49.869Z,2.4
2022-12-22T10:12:49.830Z,4.6
2022-12-22T10:13:49.856Z,4.6
2022-12-22T10:14:49.825Z,4.6
2022-12-22T10:15:49.831Z,4.6
2022-12-22T10:16:49.936Z,4.6
2022-12-22T10:17:49.848Z,3.4
2022-12-22T10:18:50.045Z,3.4
2022-12-22T10:19:49.821Z,3.4
2022-12-22T10:20:49.828Z,3.4
2022-12-22T10:21:49.838Z,3.4
2022-12-22T10:22:49.843Z,3.8
2022-12-22T10:23:49.826Z,3.8
2022-12-22T10:24:49.834Z,3.8
2022-12-22T10:26:26.654Z,3.8
2022-12-22T10:26:49.839Z,5.3
2022-12-22T10:27:51.533Z,5.3
2022-12-22T10:28:49.848Z,5.3
2022-12-22T10:29:49.835Z,4.4
2022-12-22T10:30:49.825Z,4.4
2022-12-22T10:31:49.872Z,4.4
2022-12-22T10:32:49.875Z,4.4
2022-12-22T10:33:50.004Z,4.4
2022-12-22T10:34:49.925Z,4.4
2022-12-22T10:35:49.847Z,4.9
2022-12-22T10:36:49.860Z,4.9
2022-12-22T10:37:49.861Z,4.9
2022-12-22T10:38:49.873Z,4.8
2022-12-22T10:39:49.863Z,4.8
2022-12-22T10:40:49.879Z,4.8
2022-12-22T10:41:49.846Z,4.8
2022-12-22T10:42:49.856Z,6.7
2022-12-22T10:43:49.941Z,6.7
2022-12-22T10:44:49.873Z,6.7
2022-12-22T10:45:49.965Z,6.8
2022-12-22T10:46:49.896Z,6.8
2022-12-22T10:47:49.924Z,6.8
2022-12-22T10:48:49.965Z,6.8
2022-12-22T10:49:49.883Z,6.8
2022-12-22T10:50:49.946Z,7.4
2022-12-22T10:51:49.885Z,7.4
2022-12-22T10:52:49.939Z,7.4
2022-12-22T10:53:49.930Z,7.4
2022-12-22T10:54:49.878Z,4.6
2022-12-22T10:55:49.944Z,4.6
2022-12-22T10:56:49.876Z,4.6
2022-12-22T10:57:49.898Z,5.6
2022-12-22T10:58:50.023Z,5.6
2022-12-22T10:59:49.901Z,5.6
2022-12-22T11:00:49.889Z,5.6
2022-12-22T11:01:49.981Z,7.2
2022-12-22T11:02:49.998Z,7.2
2022-12-22T11:03:49.973Z,7.2
2022-12-22T11:04:49.939Z,7.2
2022-12-22T11:05:49.901Z,7.7
2022-12-22T11:06:49.890Z,7.7
2022-12-22T11:07:49.931Z,7.7
2022-12-22T11:08:51.698Z,4.4
2022-12-22T11:09:49.956Z,4.4
2022-12-22T11:10:49.936Z,4.4
2022-12-22T11:11:49.936Z,4.4
2022-12-22T11:12:49.952Z,5
2022-12-22T11:13:49.930Z,5
2022-12-22T11:14:49.953Z,5
2022-12-22T11:15:50.011Z,5
2022-12-22T11:16:49.968Z,2.9
2022-12-22T11:17:49.958Z,2.9
2022-12-22T11:18:49.991Z,2.9
2022-12-22T11:19:50.091Z,2.9
2022-12-22T11:20:50.030Z,5.3
2022-12-22T11:21:50.000Z,5.3
2022-12-22T11:22:50.009Z,5.3
2022-12-22T11:23:49.999Z,5.3
2022-12-22T11:24:50.028Z,3.5
2022-12-22T11:25:50.008Z,3.5
2022-12-22T11:26:49.999Z,3.5
2022-12-22T11:27:50.046Z,4
2022-12-22T11:28:50.027Z,4
2022-12-22T11:29:50.102Z,4
2022-12-22T11:30:50.216Z,4
2022-12-22T11:31:50.044Z,4
2022-12-22T11:32:50.016Z,4
2022-12-22T11:33:50.107Z,4.6
2022-12-22T11:34:50.004Z,4.6
2022-12-22T11:35:50.077Z,4.6
2022-12-22T11:36:50.122Z,4.6
2022-12-22T11:37:50.033Z,4.6
2022-12-22T11:38:50.076Z,4.6
2022-12-22T11:39:51.891Z,4.6
2022-12-22T11:40:50.039Z,4.6
2022-12-22T11:41:50.034Z,4.6
2022-12-22T11:42:50.031Z,4.6
2022-12-22T11:43:50.054Z,5.6
2022-12-22T11:44:50.075Z,5.6
2022-12-22T11:45:50.242Z,5.6
2022-12-22T11:46:50.150Z,5.6
2022-12-22T11:47:50.078Z,3
2022-12-22T11:48:50.091Z,3
2022-12-22T11:49:50.162Z,3
2022-12-22T11:51:00.492Z,3
2022-12-22T11:51:50.108Z,2.4
2022-12-22T11:52:50.109Z,2.4
2022-12-22T11:53:50.106Z,2.4
2022-12-22T11:54:50.102Z,2.4
2022-12-22T11:55:50.098Z,6.9
2022-12-22T11:56:50.121Z,6.9
2022-12-22T11:57:50.097Z,6.9
2022-12-22T11:58:50.135Z,7.7
2022-12-22T11:59:50.120Z,7.7
2022-12-22T12:01:13.910Z,7.7
2022-12-22T12:01:50.311Z,7.7
2022-12-22T12:02:50.176Z,3.4
2022-12-22T12:03:50.176Z,3.4
2022-12-22T12:04:50.117Z,3.4
2022-12-22T12:05:50.143Z,3.4
2022-12-22T12:06:50.094Z,3.4
2022-12-22T12:07:50.145Z,3.4
2022-12-22T12:08:50.162Z,3.4
2022-12-22T12:09:50.080Z,1.5
2022-12-22T12:10:50.133Z,1.5
2022-12-22T12:11:50.090Z,1.5
2022-12-22T12:12:50.129Z,1.5
2022-12-22T12:13:50.174Z,2.6
2022-12-22T12:14:50.148Z,2.6
2022-12-22T12:15:50.302Z,2.6
2022-12-22T12:16:50.129Z,2.1
2022-12-22T12:17:50.246Z,2.1
2022-12-22T12:18:50.166Z,2.1
2022-12-22T12:19:50.131Z,2.1
2022-12-22T12:20:50.176Z,2.1
2022-12-22T12:21:50.163Z,1.2
2022-12-22T12:22:50.128Z,1.2
2022-12-22T12:23:50.242Z,1.2
2022-12-22T12:24:50.177Z,1.2
2022-12-22T12:25:50.282Z,3.1
2022-12-22T12:26:50.146Z,3.1
2022-12-22T12:27:50.144Z,3.1
2022-12-22T12:28:50.176Z,3.1
2022-12-22T12:30:06.405Z,2.6
2022-12-22T12:30:50.305Z,2.6
2022-12-22T12:31:50.236Z,2.6
2022-12-22T12:32:50.167Z,1.2
2022-12-22T12:33:50.161Z,1.2
2022-12-22T12:34:50.148Z,1.2
2022-12-22T12:35:50.203Z,1.2
2022-12-22T12:36:50.177Z,4
2022-12-22T12:37:50.158Z,4
2022-12-22T12:39:07.230Z,4
2022-12-22T12:39:50.153Z,4
2022-12-22T12:40:50.194Z,3.8
2022-12-22T12:41:50.166Z,3.8
2022-12-22T12:42:50.311Z,3.8
2022-12-22T12:43:50.205Z,1.8
2022-12-22T12:44:50.171Z,1.8
2022-12-22T12:45:50.172Z,1.8
2022-12-22T12:46:50.285Z,1.4
2022-12-22T12:47:50.151Z,1.4
2022-12-22T12:48:50.372Z,1.4
2022-12-22T12:49:50.160Z,1.4
2022-12-22T12:50:50.161Z,1.4
2022-12-22T12:51:50.311Z,2.9
2022-12-22T12:52:50.273Z,2.9
2022-12-22T12:53:50.345Z,2.9
2022-12-22T12:54:50.223Z,0.6
2022-12-22T12:55:50.238Z,0.6
2022-12-22T12:56:50.264Z,0.6
2022-12-22T12:57:50.301Z,0.6
2022-12-22T12:58:50.426Z,1.4
2022-12-22T12:59:50.231Z,1.4
2022-12-22T13:00:55.430Z,1.4
2022-12-22T13:01:50.412Z,0.5
2022-12-22T13:02:50.425Z,0.5
2022-12-22T13:04:02.916Z,0.5
2022-12-22T13:04:50.228Z,0.5
2022-12-22T13:05:50.307Z,0.5
2022-12-22T13:06:51.441Z,0.5
2022-12-22T13:07:50.289Z,0.5
2022-12-22T13:08:50.296Z,0.5
2022-12-22T13:09:51.378Z,0.6
2022-12-22T13:10:50.336Z,0.6
2022-12-22T13:12:11.541Z,0.6
2022-12-22T13:12:50.380Z,0.6
2022-12-22T13:13:50.331Z,0.7
2022-12-22T13:14:50.269Z,0.7
2022-12-22T13:15:50.447Z,0.7
2022-12-22T13:16:50.338Z,3
2022-12-22T13:17:50.516Z,3
2022-12-22T13:18:51.756Z,3
2022-12-22T13:19:50.303Z,3
2022-12-22T13:20:50.351Z,3.1
2022-12-22T13:21:53.777Z,3.1
2022-12-22T13:22:50.405Z,3.1
2022-12-22T13:24:14.824Z,3.1
2022-12-22T13:24:50.302Z,0.7
2022-12-22T13:25:50.401Z,0.7
2022-12-22T13:26:50.358Z,0.7
2022-12-22T13:27:50.296Z,2
2022-12-22T13:28:50.361Z,2
2022-12-22T13:29:50.368Z,2
2022-12-22T13:30:50.345Z,2.2
2022-12-22T13:31:50.473Z,2.2
2022-12-22T13:32:50.376Z,2.2
2022-12-22T13:33:50.427Z,2.2
2022-12-22T13:35:28.818Z,3.2
2022-12-22T13:35:55.050Z,3.2
2022-12-22T13:36:50.371Z,3.2
2022-12-22T13:37:50.363Z,3.1
2022-12-22T13:38:50.401Z,3.1
2022-12-22T13:39:50.354Z,3.1
2022-12-22T13:40:50.347Z,3.1
2022-12-22T13:41:50.406Z,1.1
2022-12-22T13:42:50.477Z,1.1
2022-12-22T13:43:50.485Z,1.1
2022-12-22T13:44:50.373Z,1.1
2022-12-22T13:45:50.343Z,1.6
2022-12-22T13:46:50.399Z,1.6
2022-12-22T13:47:50.351Z,1.6
2022-12-22T13:48:50.404Z,1.6
2022-12-22T13:50:08.194Z,0.8
2022-12-22T13:50:50.353Z,0.8
2022-12-22T13:51:50.419Z,0.8
2022-12-22T13:52:50.417Z,2.7
2022-12-22T13:54:50.434Z,2.7
2022-12-22T13:55:50.493Z,4.4
2022-12-22T13:56:50.506Z,4.4
2022-12-22T13:57:54.825Z,4.4
2022-12-22T13:58:50.530Z,4.4
2022-12-22T13:59:50.419Z,2.4